ADDS METAR Data INFO
IDs: Format: Raw Decoded Include TAF

Data at: 0025 UTC 17 Dec 2017

KCSG 162351Z 00000KT 10SM CLR 09/M01 A3027 RMK AO2 SLP251 T00941011 10144 20094 53012 $
KCSG 162251Z 00000KT 10SM CLR 11/M02 A3025 RMK AO2 SLP245 T01111022 $
KCSG 162151Z 25004KT 10SM CLR 13/M03 A3024 RMK AO2 SLP240 T01331028 $
KCSG 162051Z 00000KT 10SM CLR 14/M03 A3023 RMK AO2 SLP238 T01391033 56022 $
KCSG 161951Z 00000KT 10SM CLR 13/M03 A3024 RMK AO2 SLP241 T01331033 $
KCSG 161851Z 35005KT 10SM CLR 12/M04 A3026 RMK AO2 SLP249 T01221039 $
KCSG 161751Z 21003KT 10SM CLR 11/M02 A3030 RMK AO2 SLP260 T01061022 10106 21028 58013 $
KCSG 161651Z 11003KT 10SM CLR 09/M03 A3032 RMK AO2 SLP267 T00891028 $
KCSG 161551Z 21003KT 10SM CLR 06/M02 A3034 RMK AO2 SLP275 T00561022 $
KCSG 161451Z 12003KT 9SM CLR 03/M02 A3034 RMK AO2 SLP275 T00281022 51019 $
KCSG 161351Z AUTO 00000KT 7SM CLR M01/M03 A3032 RMK AO2 SLP269 T10061033 $
KCSG 161251Z AUTO 00000KT 7SM CLR M02/M04 A3031 RMK AO2 SLP265 T10221044 $
KCSG 161151Z AUTO 00000KT 10SM CLR M02/M05 A3028 RMK AO2 SLP255 T10171050 10011 21022 53007 $
KCSG 161051Z AUTO 00000KT 10SM CLR M01/M04 A3027 RMK AO2 SLP250 T10061044 $
KCSG 160951Z AUTO 00000KT 10SM CLR M02/M04 A3026 RMK AO2 SLP248 T10171044 $
KCSG 160851Z AUTO 03003KT 9SM CLR M01/M04 A3026 RMK AO2 SLP248 T10061039 53004 $
KCSG 160751Z AUTO 00000KT 10SM CLR M01/M04 A3026 RMK AO2 SLP248 T10061039 $
KCSG 160651Z AUTO 00000KT 10SM CLR 00/M04 A3025 RMK AO2 SLP244 T00001039 $
KCSG 160551Z AUTO 00000KT 10SM CLR 01/M04 A3025 RMK AO2 SLP245 T00111039 10067 20006 53002 $
KCSG 160451Z AUTO 36003KT 10SM CLR 03/M04 A3025 RMK AO2 SLP242 T00281039 400890028 $
KCSG 160351Z AUTO 00000KT 10SM CLR 03/M03 A3025 RMK AO2 SLP243 T00331033 $
KCSG 160251Z AUTO 34003KT 10SM CLR 04/M04 A3024 RMK AO2 SLP242 T00441039 53020 $
KCSG 160151Z 01004KT 10SM CLR 06/M04 A3020 RMK AO2 SLP227 T00561039 $
KCSG 160051Z 34005KT 10SM CLR 06/M04 A3020 RMK AO2 SLP226 T00611039 $
KCSG 152351Z 33009KT 10SM CLR 07/M04 A3019 RMK AO2 SLP222 T00671039 10089 20061 53015 $
KCSG 152251Z 32008KT 10SM SCT100 07/M04 A3016 RMK AO2 SLP213 T00671039 $
KCSG 152151Z 33011KT 10SM CLR 07/M04 A3014 RMK AO2 SLP205 T00721039 $
KCSG 152051Z 33011KT 10SM CLR 08/M04 A3014 RMK AO2 SLP207 T00781039 53010 $
KCSG 151951Z 32011KT 10SM FEW120 08/M04 A3012 RMK AO2 SLP199 T00831039
KCSG 151851Z 30011KT 10SM CLR 08/M01 A3011 RMK AO2 SLP196 T00831011
KCSG 151751Z 34008KT 10SM CLR 09/M01 A3011 RMK AO2 SLP197 T00891006 10089 20044 50003
KCSG 151651Z 34010KT 10SM CLR 09/00 A3012 RMK AO2 SLP200 T00890000
KCSG 151551Z 34008KT 10SM CLR 08/00 A3011 RMK AO2 SLP197 T00780000
KCSG 151451Z 35007KT 10SM CLR 07/01 A3010 RMK AO2 SLP194 T00670006 53025
KCSG 151351Z 01009KT 10SM CLR 06/01 A3007 RMK AO2 SLP182 T00610011
KCSG 151251Z AUTO 35007KT 10SM CLR 06/02 A3005 RMK AO2 SLP174 T00610022